sensor_id;sensor_type;location;lat;lon;timestamp;pressure;altitude;pressure_sealevel;temperature;humidity
48424;BME280;34232;42.502;26.014;2024-01-30T00:01:49;102276.06;;;3.17;56.84
48424;BME280;34232;42.502;26.014;2024-01-30T00:04:15;102273.38;;;3.23;56.80
48424;BME280;34232;42.502;26.014;2024-01-30T00:06:41;102281.88;;;3.33;56.65
48424;BME280;34232;42.502;26.014;2024-01-30T00:09:07;102280.94;;;3.38;56.62
48424;BME280;34232;42.502;26.014;2024-01-30T00:11:32;102273.84;;;3.46;56.33
48424;BME280;34232;42.502;26.014;2024-01-30T00:13:58;102274.69;;;3.47;55.95
48424;BME280;34232;42.502;26.014;2024-01-30T00:16:23;102279.88;;;3.48;56.15
48424;BME280;34232;42.502;26.014;2024-01-30T00:18:52;102276.38;;;3.51;55.79
48424;BME280;34232;42.502;26.014;2024-01-30T00:21:18;102284.16;;;3.53;55.90
48424;BME280;34232;42.502;26.014;2024-01-30T00:23:44;102274.63;;;3.51;55.84
48424;BME280;34232;42.502;26.014;2024-01-30T00:26:09;102271.13;;;3.54;56.20
48424;BME280;34232;42.502;26.014;2024-01-30T00:28:35;102274.59;;;3.53;56.37
48424;BME280;34232;42.502;26.014;2024-01-30T00:31:00;102273.69;;;3.56;56.71
48424;BME280;34232;42.502;26.014;2024-01-30T00:33:25;102276.19;;;3.60;56.59
48424;BME280;34232;42.502;26.014;2024-01-30T00:35:51;102269.97;;;3.69;56.86
48424;BME280;34232;42.502;26.014;2024-01-30T00:38:16;102271.66;;;3.73;56.18
48424;BME280;34232;42.502;26.014;2024-01-30T00:40:41;102267.31;;;3.72;56.12
48424;BME280;34232;42.502;26.014;2024-01-30T00:43:07;102267.31;;;3.72;55.93
48424;BME280;34232;42.502;26.014;2024-01-30T00:45:32;102280.34;;;3.72;55.94
48424;BME280;34232;42.502;26.014;2024-01-30T00:47:57;102288.06;;;3.76;56.00
48424;BME280;34232;42.502;26.014;2024-01-30T00:50:22;102282.75;;;3.82;55.95
48424;BME280;34232;42.502;26.014;2024-01-30T00:52:48;102273.19;;;3.83;55.85
48424;BME280;34232;42.502;26.014;2024-01-30T00:55:13;102281.84;;;3.85;56.02
48424;BME280;34232;42.502;26.014;2024-01-30T00:57:39;102278.22;;;3.92;55.90
48424;BME280;34232;42.502;26.014;2024-01-30T01:00:05;102273.84;;;3.93;55.67
48424;BME280;34232;42.502;26.014;2024-01-30T01:02:31;102279.88;;;3.96;55.67
48424;BME280;34232;42.502;26.014;2024-01-30T01:04:56;102281.50;;;4.03;55.48
48424;BME280;34232;42.502;26.014;2024-01-30T01:07:22;102269.44;;;3.96;55.28
48424;BME280;34232;42.502;26.014;2024-01-30T01:09:47;102275.56;;;3.95;55.65
48424;BME280;34232;42.502;26.014;2024-01-30T01:12:13;102267.88;;;3.89;55.91
48424;BME280;34232;42.502;26.014;2024-01-30T01:14:38;102261.06;;;3.80;55.92
48424;BME280;34232;42.502;26.014;2024-01-30T01:17:04;102268.97;;;3.76;56.13
48424;BME280;34232;42.502;26.014;2024-01-30T01:19:29;102270.72;;;3.74;56.82
48424;BME280;34232;42.502;26.014;2024-01-30T01:21:54;102259.63;;;3.66;57.06
48424;BME280;34232;42.502;26.014;2024-01-30T01:24:20;102260.50;;;3.65;56.91
48424;BME280;34232;42.502;26.014;2024-01-30T01:26:45;102258.84;;;3.59;57.33
48424;BME280;34232;42.502;26.014;2024-01-30T01:29:10;102270.88;;;3.68;57.31
48424;BME280;34232;42.502;26.014;2024-01-30T01:31:37;102277.81;;;3.67;57.47
48424;BME280;34232;42.502;26.014;2024-01-30T01:34:09;102278.63;;;3.71;57.76
48424;BME280;34232;42.502;26.014;2024-01-30T01:36:34;102283.88;;;3.68;57.81
48424;BME280;34232;42.502;26.014;2024-01-30T01:38:59;102280.41;;;3.69;58.12
48424;BME280;34232;42.502;26.014;2024-01-30T01:41:25;102285.47;;;3.75;58.02
48424;BME280;34232;42.502;26.014;2024-01-30T01:43:54;102283.66;;;3.80;58.33
48424;BME280;34232;42.502;26.014;2024-01-30T01:46:19;102275.72;;;3.88;58.14
48424;BME280;34232;42.502;26.014;2024-01-30T01:48:45;102273.84;;;3.93;58.31
48424;BME280;34232;42.502;26.014;2024-01-30T01:51:10;102285.13;;;3.93;58.10
48424;BME280;34232;42.502;26.014;2024-01-30T01:53:35;102271.19;;;3.97;57.62
48424;BME280;34232;42.502;26.014;2024-01-30T01:56:01;102266.72;;;4.04;57.44
48424;BME280;34232;42.502;26.014;2024-01-30T01:58:26;102266.78;;;3.99;57.26
48424;BME280;34232;42.502;26.014;2024-01-30T02:00:53;102266.00;;;3.94;57.08
48424;BME280;34232;42.502;26.014;2024-01-30T02:03:19;102272.09;;;3.95;57.02
48424;BME280;34232;42.502;26.014;2024-01-30T02:05:46;102265.97;;;3.97;57.47
48424;BME280;34232;42.502;26.014;2024-01-30T02:08:11;102270.22;;;4.01;57.62
48424;BME280;34232;42.502;26.014;2024-01-30T02:10:37;102253.03;;;3.91;57.72
48424;BME280;34232;42.502;26.014;2024-01-30T02:13:02;102252.25;;;3.89;57.83
48424;BME280;34232;42.502;26.014;2024-01-30T02:15:28;102254.78;;;3.91;58.24
48424;BME280;34232;42.502;26.014;2024-01-30T02:17:54;102244.56;;;3.81;57.84
48424;BME280;34232;42.502;26.014;2024-01-30T02:20:19;102235.09;;;3.76;57.46
48424;BME280;34232;42.502;26.014;2024-01-30T02:22:45;102234.13;;;3.81;58.05
48424;BME280;34232;42.502;26.014;2024-01-30T02:25:13;102243.81;;;3.75;58.39
48424;BME280;34232;42.502;26.014;2024-01-30T02:27:38;102236.13;;;3.69;58.57
48424;BME280;34232;42.502;26.014;2024-01-30T02:30:04;102238.72;;;3.69;58.29
48424;BME280;34232;42.502;26.014;2024-01-30T02:32:29;102242.09;;;3.74;58.48
48424;BME280;34232;42.502;26.014;2024-01-30T02:34:54;102239.63;;;3.68;58.64
48424;BME280;34232;42.502;26.014;2024-01-30T02:37:20;102236.97;;;3.71;58.66
48424;BME280;34232;42.502;26.014;2024-01-30T02:39:45;102243.94;;;3.69;58.10
48424;BME280;34232;42.502;26.014;2024-01-30T02:42:10;102240.56;;;3.64;58.41
48424;BME280;34232;42.502;26.014;2024-01-30T02:44:36;102243.88;;;3.72;58.13
48424;BME280;34232;42.502;26.014;2024-01-30T02:47:01;102248.97;;;3.76;58.02
48424;BME280;34232;42.502;26.014;2024-01-30T02:49:26;102254.16;;;3.78;58.02
48424;BME280;34232;42.502;26.014;2024-01-30T02:51:53;102254.16;;;3.78;57.76
48424;BME280;34232;42.502;26.014;2024-01-30T02:54:18;102250.72;;;3.76;57.53
48424;BME280;34232;42.502;26.014;2024-01-30T02:56:44;102256.81;;;3.75;57.15
48424;BME280;34232;42.502;26.014;2024-01-30T02:59:09;102263.56;;;3.86;57.19
48424;BME280;34232;42.502;26.014;2024-01-30T03:01:42;102269.69;;;3.84;57.03
48424;BME280;34232;42.502;26.014;2024-01-30T03:04:07;102266.00;;;3.94;56.76
48424;BME280;34232;42.502;26.014;2024-01-30T03:06:32;102260.50;;;4.09;56.47
48424;BME280;34232;42.502;26.014;2024-01-30T03:08:58;102249.22;;;4.09;56.35
48424;BME280;34232;42.502;26.014;2024-01-30T03:11:23;102249.97;;;4.15;56.15
48424;BME280;34232;42.502;26.014;2024-01-30T03:13:48;102245.59;;;4.17;55.73
48424;BME280;34232;42.502;26.014;2024-01-30T03:16:14;102244.53;;;4.25;55.18
48424;BME280;34232;42.502;26.014;2024-01-30T03:18:39;102252.53;;;4.17;55.38
48424;BME280;34232;42.502;26.014;2024-01-30T03:21:04;102241.50;;;4.04;55.45
48424;BME280;34232;42.502;26.014;2024-01-30T03:23:29;102241.31;;;4.13;54.59
48424;BME280;34232;42.502;26.014;2024-01-30T03:25:57;102240.56;;;4.07;54.77
48424;BME280;34232;42.502;26.014;2024-01-30T03:28:22;102236.22;;;4.07;55.06
48424;BME280;34232;42.502;26.014;2024-01-30T03:30:48;102236.00;;;4.19;55.51
48424;BME280;34232;42.502;26.014;2024-01-30T03:33:13;102236.84;;;4.20;55.48
48424;BME280;34232;42.502;26.014;2024-01-30T03:35:38;102230.81;;;4.18;54.75
48424;BME280;34232;42.502;26.014;2024-01-30T03:38:03;102230.78;;;4.19;55.01
48424;BME280;34232;42.502;26.014;2024-01-30T03:40:29;102226.59;;;4.11;54.80
48424;BME280;34232;42.502;26.014;2024-01-30T03:42:54;102230.78;;;4.19;54.96
48424;BME280;34232;42.502;26.014;2024-01-30T03:45:20;102233.56;;;4.10;55.08
48424;BME280;34232;42.502;26.014;2024-01-30T03:47:45;102238.78;;;4.09;55.10
48424;BME280;34232;42.502;26.014;2024-01-30T03:50:10;102236.03;;;4.16;54.91
48424;BME280;34232;42.502;26.014;2024-01-30T03:52:36;102237.94;;;4.08;55.03
48424;BME280;34232;42.502;26.014;2024-01-30T03:55:01;102240.50;;;4.10;55.01
48424;BME280;34232;42.502;26.014;2024-01-30T03:57:26;102246.72;;;4.04;54.96
48424;BME280;34232;42.502;26.014;2024-01-30T03:59:52;102245.63;;;4.14;55.10
48424;BME280;34232;42.502;26.014;2024-01-30T04:02:18;102239.78;;;4.03;55.48
48424;BME280;34232;42.502;26.014;2024-01-30T04:04:43;102238.03;;;4.05;55.24
48424;BME280;34232;42.502;26.014;2024-01-30T04:07:09;102249.09;;;4.15;55.28
48424;BME280;34232;42.502;26.014;2024-01-30T04:09:34;102236.31;;;4.04;55.32
48424;BME280;34232;42.502;26.014;2024-01-30T04:11:59;102250.22;;;4.03;55.30
48424;BME280;34232;42.502;26.014;2024-01-30T04:14:25;102236.41;;;3.98;55.24
48424;BME280;34232;42.502;26.014;2024-01-30T04:16:50;102240.66;;;4.04;55.49
48424;BME280;34232;42.502;26.014;2024-01-30T04:19:15;102235.47;;;4.02;55.52
48424;BME280;34232;42.502;26.014;2024-01-30T04:21:41;102238.06;;;4.02;55.65
48424;BME280;34232;42.502;26.014;2024-01-30T04:24:06;102248.50;;;4.02;55.63
48424;BME280;34232;42.502;26.014;2024-01-30T04:26:31;102240.72;;;4.01;55.83
48424;BME280;34232;42.502;26.014;2024-01-30T04:28:57;102238.81;;;4.07;55.49
48424;BME280;34232;42.502;26.014;2024-01-30T04:31:22;102243.94;;;4.12;55.56
48424;BME280;34232;42.502;26.014;2024-01-30T04:33:47;102236.16;;;4.10;55.68
48424;BME280;34232;42.502;26.014;2024-01-30T04:36:13;102241.16;;;4.21;55.51
48424;BME280;34232;42.502;26.014;2024-01-30T04:38:38;102242.06;;;4.20;55.30
48424;BME280;34232;42.502;26.014;2024-01-30T04:41:04;102249.84;;;4.21;54.84
48424;BME280;34232;42.502;26.014;2024-01-30T04:43:29;102254.19;;;4.21;54.64
48424;BME280;34232;42.502;26.014;2024-01-30T04:45:55;102257.00;;;4.10;54.74
48424;BME280;34232;42.502;26.014;2024-01-30T04:48:20;102255.13;;;4.18;54.79
48424;BME280;34232;42.502;26.014;2024-01-30T04:50:45;102259.81;;;4.01;55.03
48424;BME280;34232;42.502;26.014;2024-01-30T04:53:11;102263.53;;;3.90;55.45
48424;BME280;34232;42.502;26.014;2024-01-30T04:55:36;102260.22;;;3.80;55.78
48424;BME280;34232;42.502;26.014;2024-01-30T04:58:01;102266.31;;;3.79;56.03
48424;BME280;34232;42.502;26.014;2024-01-30T05:00:27;102260.44;;;3.68;56.09
48424;BME280;34232;42.502;26.014;2024-01-30T05:02:52;102273.28;;;3.77;56.20
48424;BME280;34232;42.502;26.014;2024-01-30T05:05:17;102267.16;;;3.79;56.20
48424;BME280;34232;42.502;26.014;2024-01-30T05:07:43;102267.16;;;3.81;55.93
48424;BME280;34232;42.502;26.014;2024-01-30T05:10:08;102255.72;;;3.88;55.82
48424;BME280;34232;42.502;26.014;2024-01-30T05:12:34;102243.44;;;3.93;55.91
48424;BME280;34232;42.502;26.014;2024-01-30T05:14:59;102237.38;;;3.93;55.69
48424;BME280;34232;42.502;26.014;2024-01-30T05:17:24;102235.59;;;3.95;55.64
48424;BME280;34232;42.502;26.014;2024-01-30T05:19:50;102236.53;;;3.92;55.65
48424;BME280;34232;42.502;26.014;2024-01-30T05:22:15;102230.59;;;3.85;55.74
48424;BME280;34232;42.502;26.014;2024-01-30T05:24:42;102233.31;;;3.79;55.80
48424;BME280;34232;42.502;26.014;2024-01-30T05:27:08;102223.91;;;3.72;56.29
48424;BME280;34232;42.502;26.014;2024-01-30T05:29:33;102222.97;;;3.75;56.33
48424;BME280;34232;42.502;26.014;2024-01-30T05:31:58;102219.66;;;3.67;56.47
48424;BME280;34232;42.502;26.014;2024-01-30T05:34:24;102220.47;;;3.70;56.41
48424;BME280;34232;42.502;26.014;2024-01-30T05:36:49;102210.09;;;3.67;56.67
48424;BME280;34232;42.502;26.014;2024-01-30T05:39:14;102210.84;;;3.74;56.41
48424;BME280;34232;42.502;26.014;2024-01-30T05:41:40;102209.16;;;3.73;56.43
48424;BME280;34232;42.502;26.014;2024-01-30T05:44:05;102217.00;;;3.70;56.71
48424;BME280;34232;42.502;26.014;2024-01-30T05:46:30;102216.97;;;3.73;56.47
48424;BME280;34232;42.502;26.014;2024-01-30T05:48:56;102219.38;;;3.82;56.67
48424;BME280;34232;42.502;26.014;2024-01-30T05:51:21;102227.97;;;3.87;56.55
48424;BME280;34232;42.502;26.014;2024-01-30T05:53:47;102228.78;;;3.89;56.41
48424;BME280;34232;42.502;26.014;2024-01-30T05:56:12;102232.19;;;3.93;55.79
48424;BME280;34232;42.502;26.014;2024-01-30T05:58:37;102231.31;;;3.92;56.08
48424;BME280;34232;42.502;26.014;2024-01-30T06:01:06;102233.94;;;3.91;55.74
48424;BME280;34232;42.502;26.014;2024-01-30T06:03:31;102234.88;;;3.88;55.46
48424;BME280;34232;42.502;26.014;2024-01-30T06:05:57;102229.59;;;3.91;55.58
48424;BME280;34232;42.502;26.014;2024-01-30T06:08:22;102240.09;;;3.88;55.30
48424;BME280;34232;42.502;26.014;2024-01-30T06:10:48;102236.53;;;3.92;55.17
48424;BME280;34232;42.502;26.014;2024-01-30T06:13:14;102238.50;;;3.81;55.55
48424;BME280;34232;42.502;26.014;2024-01-30T06:15:39;102230.72;;;3.78;55.45
48424;BME280;34232;42.502;26.014;2024-01-30T06:18:05;102236.97;;;3.71;55.53
48424;BME280;34232;42.502;26.014;2024-01-30T06:20:30;102236.16;;;3.67;55.44
48424;BME280;34232;42.502;26.014;2024-01-30T06:22:55;102242.22;;;3.68;55.64
48424;BME280;34232;42.502;26.014;2024-01-30T06:25:21;102240.50;;;3.67;56.01
48424;BME280;34232;42.502;26.014;2024-01-30T06:27:46;102243.88;;;3.72;55.81
48424;BME280;34232;42.502;26.014;2024-01-30T06:30:11;102249.00;;;3.75;55.43
48424;BME280;34232;42.502;26.014;2024-01-30T06:32:37;102254.34;;;3.69;55.90
48424;BME280;34232;42.502;26.014;2024-01-30T06:35:02;102253.44;;;3.71;55.77
48424;BME280;34232;42.502;26.014;2024-01-30T06:37:28;102255.88;;;3.79;56.20
48424;BME280;34232;42.502;26.014;2024-01-30T06:39:53;102266.16;;;3.88;55.94
48424;BME280;34232;42.502;26.014;2024-01-30T06:42:19;102269.41;;;3.99;55.35
48424;BME280;34232;42.502;26.014;2024-01-30T06:44:44;102268.50;;;4.02;55.45
48424;BME280;34232;42.502;26.014;2024-01-30T06:47:09;102274.28;;;4.16;54.91
48424;BME280;34232;42.502;26.014;2024-01-30T06:49:35;102277.56;;;4.24;54.58
48424;BME280;34232;42.502;26.014;2024-01-30T06:52:04;102275.78;;;4.28;54.58
48424;BME280;34232;42.502;26.014;2024-01-30T06:54:30;102279.41;;;4.20;54.74
48424;BME280;34232;42.502;26.014;2024-01-30T06:56:55;102272.53;;;4.16;55.02
48424;BME280;34232;42.502;26.014;2024-01-30T06:59:20;102276.97;;;4.11;54.98
48424;BME280;34232;42.502;26.014;2024-01-30T07:01:45;102274.38;;;4.11;55.15
48424;BME280;34232;42.502;26.014;2024-01-30T07:04:11;102281.50;;;4.03;54.88
48424;BME280;34232;42.502;26.014;2024-01-30T07:06:36;102280.50;;;4.07;55.19
48424;BME280;34232;42.502;26.014;2024-01-30T07:09:01;102282.22;;;4.10;55.38
48424;BME280;34232;42.502;26.014;2024-01-30T07:11:28;102282.31;;;4.05;55.29
48424;BME280;34232;42.502;26.014;2024-01-30T07:13:54;102280.59;;;4.04;55.10
48424;BME280;34232;42.502;26.014;2024-01-30T07:16:19;102283.34;;;3.97;55.17
48424;BME280;34232;42.502;26.014;2024-01-30T07:18:44;102276.38;;;3.97;55.26
48424;BME280;34232;42.502;26.014;2024-01-30T07:21:10;102278.09;;;3.98;55.28
48424;BME280;34232;42.502;26.014;2024-01-30T07:23:35;102284.09;;;4.03;55.55
48424;BME280;34232;42.502;26.014;2024-01-30T07:26:01;102282.25;;;4.08;55.42
48424;BME280;34232;42.502;26.014;2024-01-30T07:28:26;102287.28;;;4.17;55.43
48424;BME280;34232;42.502;26.014;2024-01-30T07:30:51;102289.91;;;4.17;55.15
48424;BME280;34232;42.502;26.014;2024-01-30T07:33:17;102290.00;;;4.11;55.03
48424;BME280;34232;42.502;26.014;2024-01-30T07:35:42;102293.44;;;4.13;54.97
48424;BME280;34232;42.502;26.014;2024-01-30T07:38:07;102298.75;;;4.07;55.54
48424;BME280;34232;42.502;26.014;2024-01-30T07:40:33;102295.41;;;4.02;55.63
48424;BME280;34232;42.502;26.014;2024-01-30T07:42:58;102307.56;;;4.02;55.97
48424;BME280;34232;42.502;26.014;2024-01-30T07:45:23;102299.00;;;3.95;55.57
48424;BME280;34232;42.502;26.014;2024-01-30T07:47:50;102299.06;;;3.92;55.77
48424;BME280;34232;42.502;26.014;2024-01-30T07:50:15;102307.69;;;3.94;56.09
48424;BME280;34232;42.502;26.014;2024-01-30T07:52:41;102305.81;;;4.02;56.00
48424;BME280;34232;42.502;26.014;2024-01-30T07:55:07;102310.03;;;4.08;56.38
48424;BME280;34232;42.502;26.014;2024-01-30T07:57:33;102304.66;;;4.18;56.33
48424;BME280;34232;42.502;26.014;2024-01-30T07:59:59;102308.97;;;4.19;55.56
48424;BME280;34232;42.502;26.014;2024-01-30T08:02:24;102315.81;;;4.23;55.61
48424;BME280;34232;42.502;26.014;2024-01-30T08:04:49;102312.31;;;4.25;55.60
48424;BME280;34232;42.502;26.014;2024-01-30T08:07:15;102315.75;;;4.27;55.55
48424;BME280;34232;42.502;26.014;2024-01-30T08:09:40;102314.47;;;4.47;56.58
48424;BME280;34232;42.502;26.014;2024-01-30T08:12:06;102322.00;;;4.61;55.37
48424;BME280;34232;42.502;26.014;2024-01-30T08:14:31;102312.91;;;4.80;55.43
48424;BME280;34232;42.502;26.014;2024-01-30T08:16:57;102313.38;;;4.98;54.72
48424;BME280;34232;42.502;26.014;2024-01-30T08:19:22;102310.69;;;5.01;53.87
48424;BME280;34232;42.502;26.014;2024-01-30T08:21:47;102306.31;;;5.03;53.47
48424;BME280;34232;42.502;26.014;2024-01-30T08:24:12;102296.59;;;5.08;53.54
48424;BME280;34232;42.502;26.014;2024-01-30T08:26:38;102294.75;;;5.13;53.10
48424;BME280;34232;42.502;26.014;2024-01-30T08:29:03;102297.97;;;5.22;53.13
48424;BME280;34232;42.502;26.014;2024-01-30T08:31:29;102296.31;;;5.20;52.80
48424;BME280;34232;42.502;26.014;2024-01-30T08:33:54;102301.38;;;5.26;52.77
48424;BME280;34232;42.502;26.014;2024-01-30T08:36:19;102308.47;;;5.21;52.17
48424;BME280;34232;42.502;26.014;2024-01-30T08:38:45;102300.63;;;5.21;52.94
48424;BME280;34232;42.502;26.014;2024-01-30T08:41:10;102291.88;;;5.23;53.08
48424;BME280;34232;42.502;26.014;2024-01-30T08:43:35;102292.03;;;5.17;52.93
48424;BME280;34232;42.502;26.014;2024-01-30T08:46:01;102284.25;;;5.16;52.55
48424;BME280;34232;42.502;26.014;2024-01-30T08:48:27;102270.34;;;5.14;52.05
48424;BME280;34232;42.502;26.014;2024-01-30T08:50:52;102270.44;;;5.11;52.13
48424;BME280;34232;42.502;26.014;2024-01-30T08:53:18;102265.28;;;5.08;52.83
48424;BME280;34232;42.502;26.014;2024-01-30T08:55:43;102270.56;;;5.05;52.76
48424;BME280;34232;42.502;26.014;2024-01-30T08:58:09;102272.38;;;5.03;52.75
48424;BME280;34232;42.502;26.014;2024-01-30T09:00:34;102266.09;;;5.10;52.46
48424;BME280;34232;42.502;26.014;2024-01-30T09:03:00;102258.47;;;5.02;52.45
48424;BME280;34232;42.502;26.014;2024-01-30T09:05:25;102260.91;;;5.08;52.47
48424;BME280;34232;42.502;26.014;2024-01-30T09:07:50;102258.19;;;5.13;52.15
48424;BME280;34232;42.502;26.014;2024-01-30T09:10:15;102250.38;;;5.13;52.31
48424;BME280;34232;42.502;26.014;2024-01-30T09:12:41;102250.25;;;5.17;52.66
48424;BME280;34232;42.502;26.014;2024-01-30T09:15:06;102243.28;;;5.18;52.29
48424;BME280;34232;42.502;26.014;2024-01-30T09:17:32;102230.13;;;5.21;52.19
48424;BME280;34232;42.502;26.014;2024-01-30T09:19:58;102243.81;;;5.32;51.77
48424;BME280;34232;42.502;26.014;2024-01-30T09:22:23;102224.69;;;5.30;51.36
48424;BME280;34232;42.502;26.014;2024-01-30T09:24:49;102226.16;;;5.40;51.54
48424;BME280;34232;42.502;26.014;2024-01-30T09:27:14;102237.59;;;5.36;51.21
48424;BME280;34232;42.502;26.014;2024-01-30T09:29:39;102223.28;;;5.51;51.24
48424;BME280;34232;42.502;26.014;2024-01-30T09:32:05;102228.59;;;5.48;51.04
48424;BME280;34232;42.502;26.014;2024-01-30T09:34:31;102228.56;;;5.49;50.92
48424;BME280;34232;42.502;26.014;2024-01-30T09:36:56;102225.94;;;5.49;50.56
48424;BME280;34232;42.502;26.014;2024-01-30T09:39:22;102227.72;;;5.47;50.91
48424;BME280;34232;42.502;26.014;2024-01-30T09:44:25;102223.88;;;5.28;51.63
48424;BME280;34232;42.502;26.014;2024-01-30T09:46:51;102215.28;;;5.23;51.55
48424;BME280;34232;42.502;26.014;2024-01-30T09:49:16;102218.91;;;5.19;51.66
48424;BME280;34232;42.502;26.014;2024-01-30T09:51:44;102228.53;;;5.17;52.07
48424;BME280;34232;42.502;26.014;2024-01-30T09:54:09;102222.44;;;5.16;51.35
48424;BME280;34232;42.502;26.014;2024-01-30T09:56:34;102223.91;;;5.26;51.98
48424;BME280;34232;42.502;26.014;2024-01-30T09:59:00;102220.22;;;5.35;51.66
48424;BME280;34232;42.502;26.014;2024-01-30T10:01:25;102227.88;;;5.41;51.32
48424;BME280;34232;42.502;26.014;2024-01-30T10:03:50;102229.53;;;5.45;50.62
48424;BME280;34232;42.502;26.014;2024-01-30T10:06:17;102229.59;;;5.42;51.11
48424;BME280;34232;42.502;26.014;2024-01-30T10:08:43;102233.09;;;5.41;51.11
48424;BME280;34232;42.502;26.014;2024-01-30T10:11:09;102250.56;;;5.39;50.93
48424;BME280;34232;42.502;26.014;2024-01-30T10:13:34;102240.13;;;5.39;50.82
48424;BME280;34232;42.502;26.014;2024-01-30T10:16:00;102235.06;;;5.33;50.36
48424;BME280;34232;42.502;26.014;2024-01-30T10:18:28;102248.28;;;5.27;50.91
48424;BME280;34232;42.502;26.014;2024-01-30T10:20:53;102235.19;;;5.28;50.92
48424;BME280;34232;42.502;26.014;2024-01-30T10:23:19;102243.81;;;5.32;51.25
48424;BME280;34232;42.502;26.014;2024-01-30T10:25:45;102232.44;;;5.35;51.40
48424;BME280;34232;42.502;26.014;2024-01-30T10:28:11;102232.25;;;5.41;51.07
48424;BME280;34232;42.502;26.014;2024-01-30T10:30:36;102237.41;;;5.44;50.89
48424;BME280;34232;42.502;26.014;2024-01-30T10:33:01;102240.94;;;5.41;50.83
48424;BME280;34232;42.502;26.014;2024-01-30T10:35:27;102240.09;;;5.41;50.61
48424;BME280;34232;42.502;26.014;2024-01-30T10:37:52;102242.47;;;5.50;50.83
48424;BME280;34232;42.502;26.014;2024-01-30T10:40:21;102248.56;;;5.50;50.78
48424;BME280;34232;42.502;26.014;2024-01-30T10:42:46;102238.09;;;5.50;50.12
48424;BME280;34232;42.502;26.014;2024-01-30T10:45:12;102246.06;;;5.46;50.76
48424;BME280;34232;42.502;26.014;2024-01-30T10:47:42;102241.63;;;5.49;50.50
48424;BME280;34232;42.502;26.014;2024-01-30T10:50:08;102237.94;;;5.56;50.52
48424;BME280;34232;42.502;26.014;2024-01-30T10:52:35;102234.34;;;5.60;49.96
48424;BME280;34232;42.502;26.014;2024-01-30T10:55:01;102235.16;;;5.62;49.92
48424;BME280;34232;42.502;26.014;2024-01-30T10:57:26;102233.22;;;5.69;49.49
48424;BME280;34232;42.502;26.014;2024-01-30T10:59:56;102240.88;;;5.77;49.89
48424;BME280;34232;42.502;26.014;2024-01-30T11:02:22;102232.06;;;5.81;48.88
48424;BME280;34232;42.502;26.014;2024-01-30T11:04:49;102234.47;;;5.87;48.94
48424;BME280;34232;42.502;26.014;2024-01-30T11:07:18;102240.72;;;5.83;49.05
48424;BME280;34232;42.502;26.014;2024-01-30T11:12:26;102235.63;;;5.77;49.16
48424;BME280;34232;42.502;26.014;2024-01-30T11:17:41;102239.00;;;5.82;49.02
48424;BME280;34232;42.502;26.014;2024-01-30T11:20:16;102230.03;;;5.92;48.91
48424;BME280;34232;42.502;26.014;2024-01-30T11:22:47;102227.88;;;6.06;49.09
48424;BME280;34232;42.502;26.014;2024-01-30T11:25:13;102237.31;;;6.12;48.38
48424;BME280;34232;42.502;26.014;2024-01-30T11:27:39;102224.00;;;6.19;48.39
48424;BME280;34232;42.502;26.014;2024-01-30T11:30:05;102234.44;;;6.19;48.50
48424;BME280;34232;42.502;26.014;2024-01-30T11:32:30;102227.34;;;6.24;48.03
48424;BME280;34232;42.502;26.014;2024-01-30T11:34:56;102213.28;;;6.28;48.30
48424;BME280;34232;42.502;26.014;2024-01-30T11:37:21;102204.63;;;6.26;47.82
48424;BME280;34232;42.502;26.014;2024-01-30T11:39:50;102194.75;;;6.35;47.54
48424;BME280;34232;42.502;26.014;2024-01-30T11:42:16;102197.59;;;6.28;47.22
48424;BME280;34232;42.502;26.014;2024-01-30T11:44:45;102193.88;;;6.36;47.90
48424;BME280;34232;42.502;26.014;2024-01-30T11:47:11;102190.34;;;6.37;47.36
48424;BME280;34232;42.502;26.014;2024-01-30T11:49:36;102185.13;;;6.37;47.65
48424;BME280;34232;42.502;26.014;2024-01-30T11:52:01;102171.22;;;6.35;47.21
48424;BME280;34232;42.502;26.014;2024-01-30T11:54:27;102185.50;;;6.24;46.61
48424;BME280;34232;42.502;26.014;2024-01-30T11:56:52;102180.19;;;6.27;46.79
48424;BME280;34232;42.502;26.014;2024-01-30T11:59:17;102177.03;;;6.16;47.30
48424;BME280;34232;42.502;26.014;2024-01-30T12:01:43;102175.50;;;6.09;47.63
48424;BME280;34232;42.502;26.014;2024-01-30T12:04:08;102174.75;;;6.04;47.37
48424;BME280;34232;42.502;26.014;2024-01-30T12:06:34;102161.69;;;6.04;47.82
48424;BME280;34232;42.502;26.014;2024-01-30T12:09:00;102168.56;;;6.08;47.68
48424;BME280;34232;42.502;26.014;2024-01-30T12:11:26;102161.53;;;6.10;47.62
48424;BME280;34232;42.502;26.014;2024-01-30T12:13:54;102152.88;;;6.08;47.27
48424;BME280;34232;42.502;26.014;2024-01-30T12:16:20;102153.03;;;6.02;47.92
48424;BME280;34232;42.502;26.014;2024-01-30T12:18:45;102157.38;;;6.03;48.09
48424;BME280;34232;42.502;26.014;2024-01-30T12:21:11;102149.44;;;6.06;47.81
48424;BME280;34232;42.502;26.014;2024-01-30T12:23:36;102148.59;;;6.06;47.16
48424;BME280;34232;42.502;26.014;2024-01-30T12:26:02;102161.69;;;6.04;47.46
48424;BME280;34232;42.502;26.014;2024-01-30T12:28:32;102156.38;;;6.07;47.81
48424;BME280;34232;42.502;26.014;2024-01-30T12:31:01;102156.66;;;5.98;47.70
48424;BME280;34232;42.502;26.014;2024-01-30T12:33:26;102158.50;;;5.94;47.32
48424;BME280;34232;42.502;26.014;2024-01-30T12:35:52;102162.06;;;5.92;47.70
48424;BME280;34232;42.502;26.014;2024-01-30T12:38:18;102153.56;;;5.84;47.15
48424;BME280;34232;42.502;26.014;2024-01-30T12:40:43;102151.16;;;5.76;48.11
48424;BME280;34232;42.502;26.014;2024-01-30T12:43:10;102157.16;;;5.80;48.44
48424;BME280;34232;42.502;26.014;2024-01-30T12:45:35;102148.34;;;5.84;48.23
48424;BME280;34232;42.502;26.014;2024-01-30T12:48:01;102148.22;;;5.87;48.37
48424;BME280;34232;42.502;26.014;2024-01-30T12:50:26;102150.84;;;5.88;47.57